sensor_id;sensor_type;location;lat;lon;timestamp;pressure;altitude;pressure_sealevel;temperature;humidity
72336;BME280;65062;48.446;8.834;2023-08-20T00:01:29;97923.78;;;19.94;99.81
72336;BME280;65062;48.446;8.834;2023-08-20T00:04:30;97921.38;;;19.92;100.00
72336;BME280;65062;48.446;8.834;2023-08-20T00:07:33;97925.97;;;19.97;99.28
72336;BME280;65062;48.446;8.834;2023-08-20T00:10:34;97919.03;;;19.96;100.00
72336;BME280;65062;48.446;8.834;2023-08-20T00:13:35;97915.25;;;19.92;99.22
72336;BME280;65062;48.446;8.834;2023-08-20T00:16:35;97917.91;;;19.92;100.00
72336;BME280;65062;48.446;8.834;2023-08-20T00:19:36;97916.28;;;19.91;100.00
72336;BME280;65062;48.446;8.834;2023-08-20T00:22:37;97917.53;;;20.00;100.00
72336;BME280;65062;48.446;8.834;2023-08-20T00:25:38;97921.16;;;19.82;100.00
72336;BME280;65062;48.446;8.834;2023-08-20T00:28:38;97925.06;;;19.80;99.41
72336;BME280;65062;48.446;8.834;2023-08-20T00:31:38;97919.78;;;19.68;99.96
72336;BME280;65062;48.446;8.834;2023-08-20T00:34:39;97931.09;;;19.64;100.00
72336;BME280;65062;48.446;8.834;2023-08-20T00:37:40;97922.88;;;19.65;100.00
72336;BME280;65062;48.446;8.834;2023-08-20T00:40:40;97934.91;;;19.56;100.00
72336;BME280;65062;48.446;8.834;2023-08-20T00:43:41;97922.09;;;19.53;100.00
72336;BME280;65062;48.446;8.834;2023-08-20T00:46:42;97924.28;;;19.56;100.00
72336;BME280;65062;48.446;8.834;2023-08-20T00:49:42;97928.91;;;19.61;100.00
72336;BME280;65062;48.446;8.834;2023-08-20T00:52:43;97930.03;;;19.53;100.00
72336;BME280;65062;48.446;8.834;2023-08-20T00:55:43;97935.13;;;19.55;100.00
72336;BME280;65062;48.446;8.834;2023-08-20T00:58:44;97937.22;;;19.64;100.00
72336;BME280;65062;48.446;8.834;2023-08-20T01:01:44;97939.66;;;19.54;100.00
72336;BME280;65062;48.446;8.834;2023-08-20T01:04:46;97930.28;;;19.52;100.00
72336;BME280;65062;48.446;8.834;2023-08-20T01:11:24;97924.75;;;19.53;100.00
72336;BME280;65062;48.446;8.834;2023-08-20T01:14:27;97927.63;;;19.52;100.00
72336;BME280;65062;48.446;8.834;2023-08-20T01:17:27;97932.94;;;19.52;100.00
72336;BME280;65062;48.446;8.834;2023-08-20T01:20:30;97929.94;;;19.48;100.00
72336;BME280;65062;48.446;8.834;2023-08-20T01:23:42;97936.50;;;19.46;100.00
72336;BME280;65062;48.446;8.834;2023-08-20T01:30:15;97927.97;;;19.44;100.00
72336;BME280;65062;48.446;8.834;2023-08-20T01:33:16;97935.13;;;19.43;100.00
72336;BME280;65062;48.446;8.834;2023-08-20T01:36:16;97933.53;;;19.31;100.00
72336;BME280;65062;48.446;8.834;2023-08-20T01:39:17;97939.53;;;19.38;100.00
72336;BME280;65062;48.446;8.834;2023-08-20T01:42:18;97941.47;;;19.31;100.00
72336;BME280;65062;48.446;8.834;2023-08-20T01:45:19;97940.41;;;19.20;100.00
72336;BME280;65062;48.446;8.834;2023-08-20T01:48:19;97948.34;;;19.09;100.00
72336;BME280;65062;48.446;8.834;2023-08-20T01:51:20;97942.22;;;19.08;100.00
72336;BME280;65062;48.446;8.834;2023-08-20T01:54:20;97932.66;;;19.07;100.00
72336;BME280;65062;48.446;8.834;2023-08-20T01:57:20;97935.31;;;19.07;100.00
72336;BME280;65062;48.446;8.834;2023-08-20T02:00:21;97940.81;;;18.94;100.00
72336;BME280;65062;48.446;8.834;2023-08-20T02:03:21;97934.22;;;18.85;100.00
72336;BME280;65062;48.446;8.834;2023-08-20T02:06:21;97933.16;;;18.86;100.00
72336;BME280;65062;48.446;8.834;2023-08-20T02:09:22;97944.84;;;18.97;100.00
72336;BME280;65062;48.446;8.834;2023-08-20T02:12:22;97935.44;;;18.83;100.00
72336;BME280;65062;48.446;8.834;2023-08-20T02:15:22;97935.78;;;18.75;100.00
72336;BME280;65062;48.446;8.834;2023-08-20T02:18:23;97935.88;;;18.68;100.00
72336;BME280;65062;48.446;8.834;2023-08-20T02:21:23;97946.59;;;18.61;100.00
72336;BME280;65062;48.446;8.834;2023-08-20T02:24:23;97943.56;;;18.58;100.00
72336;BME280;65062;48.446;8.834;2023-08-20T02:27:24;97953.28;;;18.64;100.00
72336;BME280;65062;48.446;8.834;2023-08-20T02:30:24;97958.56;;;18.64;100.00
72336;BME280;65062;48.446;8.834;2023-08-20T02:33:25;97949.09;;;18.56;100.00
72336;BME280;65062;48.446;8.834;2023-08-20T02:36:25;97951.75;;;18.56;100.00
72336;BME280;65062;48.446;8.834;2023-08-20T02:39:25;97947.94;;;18.52;100.00
72336;BME280;65062;48.446;8.834;2023-08-20T02:42:26;97955.78;;;18.59;100.00
72336;BME280;65062;48.446;8.834;2023-08-20T02:45:26;97957.03;;;18.56;100.00
72336;BME280;65062;48.446;8.834;2023-08-20T02:48:26;97967.88;;;18.55;100.00
72336;BME280;65062;48.446;8.834;2023-08-20T02:51:27;97961.19;;;18.52;100.00
72336;BME280;65062;48.446;8.834;2023-08-20T02:54:28;97965.81;;;18.57;100.00
72336;BME280;65062;48.446;8.834;2023-08-20T02:57:29;97959.56;;;18.51;100.00
72336;BME280;65062;48.446;8.834;2023-08-20T03:00:30;97960.59;;;18.50;100.00
72336;BME280;65062;48.446;8.834;2023-08-20T03:03:30;97947.78;;;18.47;100.00
72336;BME280;65062;48.446;8.834;2023-08-20T03:06:31;97954.50;;;18.50;100.00
72336;BME280;65062;48.446;8.834;2023-08-20T03:09:31;97954.94;;;18.47;100.00
72336;BME280;65062;48.446;8.834;2023-08-20T03:12:32;97958.53;;;18.52;100.00
72336;BME280;65062;48.446;8.834;2023-08-20T03:15:32;97963.19;;;18.39;100.00
72336;BME280;65062;48.446;8.834;2023-08-20T03:18:32;97955.47;;;18.37;100.00
72336;BME280;65062;48.446;8.834;2023-08-20T03:21:33;97945.28;;;18.34;100.00
72336;BME280;65062;48.446;8.834;2023-08-20T03:24:33;97943.59;;;18.40;100.00
72336;BME280;65062;48.446;8.834;2023-08-20T03:27:33;97935.56;;;18.46;100.00
72336;BME280;65062;48.446;8.834;2023-08-20T03:30:34;97931.44;;;18.32;100.00
72336;BME280;65062;48.446;8.834;2023-08-20T03:33:36;97928.59;;;18.16;100.00
72336;BME280;65062;48.446;8.834;2023-08-20T03:36:36;97932.03;;;18.16;100.00
72336;BME280;65062;48.446;8.834;2023-08-20T03:39:37;97932.78;;;18.23;100.00
72336;BME280;65062;48.446;8.834;2023-08-20T03:42:37;97929.81;;;18.13;100.00
72336;BME280;65062;48.446;8.834;2023-08-20T03:45:37;97923.81;;;18.06;100.00
72336;BME280;65062;48.446;8.834;2023-08-20T03:48:38;97926.16;;;17.96;100.00
72336;BME280;65062;48.446;8.834;2023-08-20T03:51:38;97928.75;;;17.85;100.00
72336;BME280;65062;48.446;8.834;2023-08-20T03:54:38;97930.22;;;17.81;100.00
72336;BME280;65062;48.446;8.834;2023-08-20T03:57:39;97934.53;;;17.75;100.00
72336;BME280;65062;48.446;8.834;2023-08-20T04:00:39;97950.88;;;17.72;100.00
72336;BME280;65062;48.446;8.834;2023-08-20T04:03:40;97937.63;;;17.72;100.00
72336;BME280;65062;48.446;8.834;2023-08-20T04:06:40;97939.19;;;17.80;100.00
72336;BME280;65062;48.446;8.834;2023-08-20T04:09:40;97929.84;;;17.77;100.00
72336;BME280;65062;48.446;8.834;2023-08-20T04:12:42;97929.69;;;17.72;100.00
72336;BME280;65062;48.446;8.834;2023-08-20T04:15:43;97926.03;;;17.73;100.00
72336;BME280;65062;48.446;8.834;2023-08-20T04:18:43;97928.25;;;17.76;100.00
72336;BME280;65062;48.446;8.834;2023-08-20T04:21:43;97930.66;;;17.78;100.00
72336;BME280;65062;48.446;8.834;2023-08-20T04:24:44;97935.31;;;17.82;100.00
72336;BME280;65062;48.446;8.834;2023-08-20T04:27:44;97940.81;;;17.81;100.00
72336;BME280;65062;48.446;8.834;2023-08-20T04:30:44;97960.22;;;17.75;100.00
72336;BME280;65062;48.446;8.834;2023-08-20T04:33:45;97965.88;;;17.78;100.00
72336;BME280;65062;48.446;8.834;2023-08-20T04:36:46;97964.13;;;17.90;100.00
72336;BME280;65062;48.446;8.834;2023-08-20T04:39:46;97967.94;;;17.94;100.00
72336;BME280;65062;48.446;8.834;2023-08-20T04:42:47;97969.16;;;17.98;100.00
72336;BME280;65062;48.446;8.834;2023-08-20T04:45:47;97972.81;;;17.97;100.00
72336;BME280;65062;48.446;8.834;2023-08-20T04:48:47;97963.63;;;18.00;100.00
72336;BME280;65062;48.446;8.834;2023-08-20T04:51:48;97951.56;;;18.04;100.00
72336;BME280;65062;48.446;8.834;2023-08-20T04:54:49;97954.59;;;18.07;100.00
72336;BME280;65062;48.446;8.834;2023-08-20T04:57:49;97960.22;;;18.11;100.00
72336;BME280;65062;48.446;8.834;2023-08-20T05:00:49;97953.91;;;18.12;100.00
72336;BME280;65062;48.446;8.834;2023-08-20T05:03:50;97957.81;;;18.27;100.00
72336;BME280;65062;48.446;8.834;2023-08-20T05:06:50;97966.47;;;18.34;100.00
72336;BME280;65062;48.446;8.834;2023-08-20T05:09:50;97969.88;;;18.41;100.00
72336;BME280;65062;48.446;8.834;2023-08-20T05:12:51;97974.28;;;18.47;100.00
72336;BME280;65062;48.446;8.834;2023-08-20T05:15:51;97966.03;;;18.55;100.00
72336;BME280;65062;48.446;8.834;2023-08-20T05:18:51;97965.72;;;18.63;100.00
72336;BME280;65062;48.446;8.834;2023-08-20T05:21:52;97964.38;;;18.73;100.00
72336;BME280;65062;48.446;8.834;2023-08-20T05:24:56;97967.19;;;18.89;100.00
72336;BME280;65062;48.446;8.834;2023-08-20T05:27:56;97967.41;;;18.88;99.16
72336;BME280;65062;48.446;8.834;2023-08-20T05:30:57;97963.06;;;18.93;99.52
72336;BME280;65062;48.446;8.834;2023-08-20T05:33:57;97958.44;;;19.00;99.88
72336;BME280;65062;48.446;8.834;2023-08-20T05:36:57;97955.72;;;19.07;99.43
72336;BME280;65062;48.446;8.834;2023-08-20T05:39:58;97961.38;;;19.10;100.00
72336;BME280;65062;48.446;8.834;2023-08-20T05:42:58;97964.06;;;19.22;98.56
72336;BME280;65062;48.446;8.834;2023-08-20T05:45:59;97965.19;;;19.26;99.33
72336;BME280;65062;48.446;8.834;2023-08-20T05:48:59;97970.91;;;19.29;98.81
72336;BME280;65062;48.446;8.834;2023-08-20T05:52:00;97970.69;;;19.31;97.64
72336;BME280;65062;48.446;8.834;2023-08-20T05:55:00;97980.16;;;19.38;95.13
72336;BME280;65062;48.446;8.834;2023-08-20T05:58:00;97979.56;;;19.48;95.49
72336;BME280;65062;48.446;8.834;2023-08-20T06:01:01;97976.22;;;19.64;95.52
72336;BME280;65062;48.446;8.834;2023-08-20T06:04:01;97984.91;;;19.94;94.72
72336;BME280;65062;48.446;8.834;2023-08-20T06:07:02;97986.03;;;20.21;92.70
72336;BME280;65062;48.446;8.834;2023-08-20T06:10:02;97997.31;;;20.51;92.78
72336;BME280;65062;48.446;8.834;2023-08-20T06:13:03;97990.72;;;20.82;91.18
72336;BME280;65062;48.446;8.834;2023-08-20T06:16:03;97985.41;;;21.10;89.80
72336;BME280;65062;48.446;8.834;2023-08-20T06:19:04;97978.34;;;21.48;88.21
72336;BME280;65062;48.446;8.834;2023-08-20T06:22:04;97981.41;;;21.73;86.34
72336;BME280;65062;48.446;8.834;2023-08-20T06:25:05;97981.69;;;21.93;85.36
72336;BME280;65062;48.446;8.834;2023-08-20T06:28:05;97984.75;;;22.02;84.78
72336;BME280;65062;48.446;8.834;2023-08-20T06:31:06;97988.34;;;22.12;83.85
72336;BME280;65062;48.446;8.834;2023-08-20T06:34:06;97986.34;;;22.41;82.75
72336;BME280;65062;48.446;8.834;2023-08-20T06:37:06;97991.00;;;22.50;83.21
72336;BME280;65062;48.446;8.834;2023-08-20T06:40:08;97994.94;;;22.65;82.17
72336;BME280;65062;48.446;8.834;2023-08-20T06:43:09;97994.09;;;22.64;82.04
72336;BME280;65062;48.446;8.834;2023-08-20T06:46:09;97988.69;;;22.81;82.18
72336;BME280;65062;48.446;8.834;2023-08-20T06:49:10;97993.31;;;22.90;81.32
72336;BME280;65062;48.446;8.834;2023-08-20T06:52:10;97988.88;;;22.96;81.76
72336;BME280;65062;48.446;8.834;2023-08-20T06:55:10;97992.91;;;23.03;81.01
72336;BME280;65062;48.446;8.834;2023-08-20T06:58:11;97988.97;;;23.11;80.78
72336;BME280;65062;48.446;8.834;2023-08-20T07:01:11;97997.06;;;23.16;81.04
72336;BME280;65062;48.446;8.834;2023-08-20T07:04:12;97998.13;;;23.15;80.06
72336;BME280;65062;48.446;8.834;2023-08-20T07:07:13;97994.53;;;23.04;81.23
72336;BME280;65062;48.446;8.834;2023-08-20T07:10:14;97996.09;;;23.00;82.14
72336;BME280;65062;48.446;8.834;2023-08-20T07:13:15;98003.00;;;22.96;83.17
72336;BME280;65062;48.446;8.834;2023-08-20T07:16:15;98001.75;;;23.04;81.95
72336;BME280;65062;48.446;8.834;2023-08-20T07:19:15;98006.38;;;23.13;82.38
72336;BME280;65062;48.446;8.834;2023-08-20T07:22:16;98008.06;;;23.19;83.61
72336;BME280;65062;48.446;8.834;2023-08-20T07:25:16;98014.63;;;23.33;82.08
72336;BME280;65062;48.446;8.834;2023-08-20T07:28:16;98012.53;;;23.40;82.76
72336;BME280;65062;48.446;8.834;2023-08-20T07:31:28;98012.66;;;23.55;82.23
72336;BME280;65062;48.446;8.834;2023-08-20T07:34:29;98016.47;;;23.64;81.99
72336;BME280;65062;48.446;8.834;2023-08-20T07:37:34;98023.88;;;23.89;81.31
72336;BME280;65062;48.446;8.834;2023-08-20T07:40:36;98018.91;;;24.02;81.11
72336;BME280;65062;48.446;8.834;2023-08-20T07:43:37;98007.75;;;24.15;80.14
72336;BME280;65062;48.446;8.834;2023-08-20T07:46:38;98019.88;;;24.28;78.85
72336;BME280;65062;48.446;8.834;2023-08-20T07:49:38;98008.72;;;24.41;78.49
72336;BME280;65062;48.446;8.834;2023-08-20T07:52:38;98001.00;;;24.59;77.64
72336;BME280;65062;48.446;8.834;2023-08-20T07:55:40;98000.81;;;24.66;77.76
72336;BME280;65062;48.446;8.834;2023-08-20T07:58:40;98016.13;;;24.86;77.43
72336;BME280;65062;48.446;8.834;2023-08-20T08:01:41;98014.28;;;24.96;76.09
72336;BME280;65062;48.446;8.834;2023-08-20T08:04:42;98012.72;;;25.10;76.35
72336;BME280;65062;48.446;8.834;2023-08-20T08:07:42;98018.09;;;25.30;76.83
72336;BME280;65062;48.446;8.834;2023-08-20T08:10:44;98014.13;;;25.38;76.17
72336;BME280;65062;48.446;8.834;2023-08-20T08:13:45;98017.09;;;25.41;75.64
72336;BME280;65062;48.446;8.834;2023-08-20T08:16:45;98020.81;;;25.50;76.09
72336;BME280;65062;48.446;8.834;2023-08-20T08:19:46;98025.38;;;25.60;76.76
72336;BME280;65062;48.446;8.834;2023-08-20T08:22:46;98025.38;;;25.60;75.78
72336;BME280;65062;48.446;8.834;2023-08-20T08:25:46;98018.69;;;25.62;75.96
72336;BME280;65062;48.446;8.834;2023-08-20T08:28:47;98024.03;;;25.72;73.43
72336;BME280;65062;48.446;8.834;2023-08-20T08:31:47;98027.78;;;25.91;74.48
72336;BME280;65062;48.446;8.834;2023-08-20T08:34:47;98026.72;;;25.97;72.78
72336;BME280;65062;48.446;8.834;2023-08-20T08:37:48;98031.00;;;26.03;73.20
72336;BME280;65062;48.446;8.834;2023-08-20T08:40:48;98028.84;;;26.15;72.10
72336;BME280;65062;48.446;8.834;2023-08-20T08:43:49;98019.16;;;26.29;72.36
72336;BME280;65062;48.446;8.834;2023-08-20T08:46:50;98017.22;;;26.40;70.06
72336;BME280;65062;48.446;8.834;2023-08-20T08:49:52;98025.28;;;26.50;70.47
72336;BME280;65062;48.446;8.834;2023-08-20T08:52:55;98021.22;;;26.63;71.55
72336;BME280;65062;48.446;8.834;2023-08-20T08:55:55;98029.75;;;26.75;67.69
72336;BME280;65062;48.446;8.834;2023-08-20T08:58:56;98027.47;;;27.02;69.17
72336;BME280;65062;48.446;8.834;2023-08-20T09:01:56;98028.16;;;27.22;65.48
72336;BME280;65062;48.446;8.834;2023-08-20T09:04:59;98022.13;;;27.40;66.37
72336;BME280;65062;48.446;8.834;2023-08-20T09:07:59;98022.84;;;27.56;65.43
72336;BME280;65062;48.446;8.834;2023-08-20T09:11:01;98018.41;;;27.70;65.71
72336;BME280;65062;48.446;8.834;2023-08-20T09:14:02;98012.94;;;27.80;63.91
72336;BME280;65062;48.446;8.834;2023-08-20T09:17:04;98017.47;;;27.89;64.80
72336;BME280;65062;48.446;8.834;2023-08-20T09:20:05;98018.50;;;27.93;63.59
72336;BME280;65062;48.446;8.834;2023-08-20T09:23:10;98021.47;;;27.92;63.50
72336;BME280;65062;48.446;8.834;2023-08-20T09:26:10;98020.91;;;27.95;62.90
72336;BME280;65062;48.446;8.834;2023-08-20T09:29:11;98021.91;;;28.04;62.62
72336;BME280;65062;48.446;8.834;2023-08-20T09:32:21;98026.63;;;28.17;62.02
72336;BME280;65062;48.446;8.834;2023-08-20T09:35:21;98021.00;;;28.37;63.01
72336;BME280;65062;48.446;8.834;2023-08-20T09:38:23;98019.28;;;28.51;60.98
72336;BME280;65062;48.446;8.834;2023-08-20T09:41:25;98019.59;;;28.68;61.15
72336;BME280;65062;48.446;8.834;2023-08-20T09:44:27;98022.72;;;28.99;59.72
72336;BME280;65062;48.446;8.834;2023-08-20T09:47:35;98023.09;;;29.11;56.48
72336;BME280;65062;48.446;8.834;2023-08-20T09:50:37;98023.47;;;29.23;56.53
72336;BME280;65062;48.446;8.834;2023-08-20T09:53:55;98017.13;;;29.32;56.59
72336;BME280;65062;48.446;8.834;2023-08-20T09:57:01;98018.94;;;29.18;54.78
72336;BME280;65062;48.446;8.834;2023-08-20T10:00:03;98014.16;;;29.34;57.42
72336;BME280;65062;48.446;8.834;2023-08-20T10:03:05;98013.25;;;29.38;54.35
72336;BME280;65062;48.446;8.834;2023-08-20T10:06:06;98014.22;;;29.61;53.84
72336;BME280;65062;48.446;8.834;2023-08-20T10:09:06;98003.19;;;29.62;53.56
72336;BME280;65062;48.446;8.834;2023-08-20T10:12:07;98015.13;;;29.75;53.14
72336;BME280;65062;48.446;8.834;2023-08-20T10:15:08;98011.66;;;29.88;53.74
72336;BME280;65062;48.446;8.834;2023-08-20T10:18:09;98010.97;;;29.96;51.64
72336;BME280;65062;48.446;8.834;2023-08-20T10:21:10;98011.69;;;30.15;51.63
72336;BME280;65062;48.446;8.834;2023-08-20T10:24:16;98009.03;;;30.28;50.46
72336;BME280;65062;48.446;8.834;2023-08-20T10:30:26;98010.63;;;30.43;49.82
72336;BME280;65062;48.446;8.834;2023-08-20T10:33:26;98001.56;;;30.53;49.67
72336;BME280;65062;48.446;8.834;2023-08-20T10:36:26;98016.56;;;30.72;49.23
72336;BME280;65062;48.446;8.834;2023-08-20T10:39:30;98011.16;;;30.72;49.19
72336;BME280;65062;48.446;8.834;2023-08-20T10:42:30;98011.34;;;30.89;49.11
72336;BME280;65062;48.446;8.834;2023-08-20T10:45:43;98014.34;;;31.01;48.57
72336;BME280;65062;48.446;8.834;2023-08-20T10:48:56;98010.03;;;31.00;47.89
72336;BME280;65062;48.446;8.834;2023-08-20T10:52:01;98015.03;;;30.93;48.98
72336;BME280;65062;48.446;8.834;2023-08-20T10:55:03;98012.50;;;31.10;47.91
72336;BME280;65062;48.446;8.834;2023-08-20T10:58:04;98018.75;;;31.33;48.53
72336;BME280;65062;48.446;8.834;2023-08-20T11:04:22;98004.94;;;31.78;45.87
72336;BME280;65062;48.446;8.834;2023-08-20T11:07:24;98002.91;;;32.06;44.87
72336;BME280;65062;48.446;8.834;2023-08-20T11:10:25;97997.03;;;32.12;45.20
72336;BME280;65062;48.446;8.834;2023-08-20T11:13:26;98003.13;;;32.49;44.28
72336;BME280;65062;48.446;8.834;2023-08-20T11:16:26;97983.22;;;32.53;43.84
72336;BME280;65062;48.446;8.834;2023-08-20T11:19:28;97988.03;;;32.73;42.96
72336;BME280;65062;48.446;8.834;2023-08-20T11:22:28;97986.56;;;32.59;44.39
72336;BME280;65062;48.446;8.834;2023-08-20T11:25:28;97987.22;;;32.64;44.51
72336;BME280;65062;48.446;8.834;2023-08-20T11:28:29;97980.44;;;32.92;43.54
72336;BME280;65062;48.446;8.834;2023-08-20T11:31:29;97986.03;;;33.04;44.39
72336;BME280;65062;48.446;8.834;2023-08-20T11:34:31;97984.44;;;33.37;43.62
72336;BME280;65062;48.446;8.834;2023-08-20T11:37:32;97980.25;;;33.82;42.07
72336;BME280;65062;48.446;8.834;2023-08-20T11:40:32;97973.53;;;34.72;40.47
72336;BME280;65062;48.446;8.834;2023-08-20T11:43:33;97971.72;;;34.76;38.92
72336;BME280;65062;48.446;8.834;2023-08-20T11:46:42;97959.34;;;36.38;37.11
72336;BME280;65062;48.446;8.834;2023-08-20T11:49:43;97969.31;;;37.74;33.39
72336;BME280;65062;48.446;8.834;2023-08-20T11:52:43;97961.53;;;40.21;31.39
72336;BME280;65062;48.446;8.834;2023-08-20T11:55:44;97960.66;;;41.81;26.81
72336;BME280;65062;48.446;8.834;2023-08-20T11:58:50;97958.72;;;43.40;24.29
72336;BME280;65062;48.446;8.834;2023-08-20T12:01:58;97959.09;;;43.39;24.79
72336;BME280;65062;48.446;8.834;2023-08-20T12:05:18;97958.91;;;44.07;23.04
72336;BME280;65062;48.446;8.834;2023-08-20T12:08:19;97963.94;;;43.66;23.47
72336;BME280;65062;48.446;8.834;2023-08-20T12:11:24;97962.84;;;43.95;22.53
72336;BME280;65062;48.446;8.834;2023-08-20T12:14:25;97962.88;;;44.09;23.46
72336;BME280;65062;48.446;8.834;2023-08-20T12:17:25;97954.97;;;44.57;21.67
72336;BME280;65062;48.446;8.834;2023-08-20T12:20:28;97951.06;;;44.47;21.33
72336;BME280;65062;48.446;8.834;2023-08-20T12:23:30;97948.19;;;43.63;22.34
72336;BME280;65062;48.446;8.834;2023-08-20T12:26:30;97955.16;;;41.81;24.45
72336;BME280;65062;48.446;8.834;2023-08-20T12:29:30;97952.19;;;41.96;24.89
72336;BME280;65062;48.446;8.834;2023-08-20T12:32:31;97947.78;;;41.52;25.51
72336;BME280;65062;48.446;8.834;2023-08-20T12:35:31;97940.22;;;41.82;24.72
72336;BME280;65062;48.446;8.834;2023-08-20T12:38:31;97939.41;;;42.65;24.10
72336;BME280;65062;48.446;8.834;2023-08-20T12:41:33;97931.25;;;43.75;22.79
72336;BME280;65062;48.446;8.834;2023-08-20T12:44:36;97928.91;;;43.74;23.40
72336;BME280;65062;48.446;8.834;2023-08-20T12:47:36;97932.69;;;43.27;23.32
72336;BME280;65062;48.446;8.834;2023-08-20T12:50:36;97925.03;;;44.31;22.68
72336;BME280;65062;48.446;8.834;2023-08-20T12:53:37;97929.34;;;44.32;21.66
72336;BME280;65062;48.446;8.834;2023-08-20T12:56:37;97918.13;;;45.20;21.62
72336;BME280;65062;48.446;8.834;2023-08-20T12:59:37;97917.81;;;45.00;21.27
72336;BME280;65062;48.446;8.834;2023-08-20T13:02:38;97926.56;;;44.04;22.60
72336;BME280;65062;48.446;8.834;2023-08-20T13:05:39;97914.84;;;46.07;20.94
72336;BME280;65062;48.446;8.834;2023-08-20T13:08:40;97905.84;;;47.18;19.55
72336;BME280;65062;48.446;8.834;2023-08-20T13:11:43;97908.50;;;47.82;18.83
72336;BME280;65062;48.446;8.834;2023-08-20T13:14:44;97906.50;;;46.96;19.28
72336;BME280;65062;48.446;8.834;2023-08-20T13:17:47;97904.09;;;46.60;19.05
72336;BME280;65062;48.446;8.834;2023-08-20T13:20:48;97905.44;;;45.33;20.61
72336;BME280;65062;48.446;8.834;2023-08-20T13:23:48;97903.16;;;45.10;21.84
72336;BME280;65062;48.446;8.834;2023-08-20T13:26:48;97894.59;;;46.17;20.06
72336;BME280;65062;48.446;8.834;2023-08-20T13:29:49;97905.31;;;46.15;18.68
72336;BME280;65062;48.446;8.834;2023-08-20T13:32:49;97897.00;;;45.61;18.91
72336;BME280;65062;48.446;8.834;2023-08-20T13:35:50;97890.53;;;45.81;20.56
72336;BME280;65062;48.446;8.834;2023-08-20T13:38:52;97893.53;;;46.45;20.20
72336;BME280;65062;48.446;8.834;2023-08-20T13:41:52;97893.97;;;45.38;19.47
72336;BME280;65062;48.446;8.834;2023-08-20T13:44:52;97883.28;;;45.43;20.29
72336;BME280;65062;48.446;8.834;2023-08-20T13:47:53;97885.66;;;47.14;20.08
72336;BME280;65062;48.446;8.834;2023-08-20T13:50:53;97881.56;;;47.56;18.10
72336;BME280;65062;48.446;8.834;2023-08-20T13:53:53;97875.47;;;48.80;17.02
72336;BME280;65062;48.446;8.834;2023-08-20T13:56:54;97883.41;;;48.81;16.22
72336;BME280;65062;48.446;8.834;2023-08-20T13:59:54;97877.63;;;48.92;17.24
72336;BME280;65062;48.446;8.834;2023-08-20T14:02:55;97878.00;;;50.00;15.48
72336;BME280;65062;48.446;8.834;2023-08-20T14:05:55;97871.56;;;50.64;15.13
72336;BME280;65062;48.446;8.834;2023-08-20T14:08:55;97872.97;;;51.88;14.28
72336;BME280;65062;48.446;8.834;2023-08-20T14:11:56;97877.38;;;50.70;14.04
72336;BME280;65062;48.446;8.834;2023-08-20T14:14:56;97877.72;;;52.26;14.19
72336;BME280;65062;48.446;8.834;2023-08-20T14:17:56;97871.69;;;54.32;12.72
72336;BME280;65062;48.446;8.834;2023-08-20T14:20:57;97876.75;;;52.97;12.75
72336;BME280;65062;48.446;8.834;2023-08-20T14:23:58;97865.69;;;53.45;11.65
72336;BME280;65062;48.446;8.834;2023-08-20T14:26:58;97869.06;;;54.65;11.09
72336;BME280;65062;48.446;8.834;2023-08-20T14:29:58;97864.88;;;54.60;10.50
72336;BME280;65062;48.446;8.834;2023-08-20T14:32:59;97868.44;;;54.43;11.86
72336;BME280;65062;48.446;8.834;2023-08-20T14:35:59;97871.63;;;53.47;10.69
72336;BME280;65062;48.446;8.834;2023-08-20T14:38:59;97876.59;;;53.43;11.24
72336;BME280;65062;48.446;8.834;2023-08-20T14:42:00;97872.84;;;54.80;11.08
72336;BME280;65062;48.446;8.834;2023-08-20T14:45:00;97870.75;;;54.98;11.13
72336;BME280;65062;48.446;8.834;2023-08-20T14:48:02;97866.53;;;55.12;9.75
72336;BME280;65062;48.446;8.834;2023-08-20T14:51:03;97855.38;;;54.58;10.66
72336;BME280;65062;48.446;8.834;2023-08-20T14:54:03;97859.63;;;52.73;11.62
72336;BME280;65062;48.446;8.834;2023-08-20T14:57:04;97857.13;;;51.35;13.23
72336;BME280;65062;48.446;8.834;2023-08-20T15:00:04;97858.00;;;52.42;13.17
72336;BME280;65062;48.446;8.834;2023-08-20T15:03:08;97847.22;;;53.88;11.19
72336;BME280;65062;48.446;8.834;2023-08-20T15:06:08;97842.44;;;54.24;11.64
72336;BME280;65062;48.446;8.834;2023-08-20T15:09:09;97841.34;;;54.85;10.55
72336;BME280;65062;48.446;8.834;2023-08-20T15:12:15;97837.72;;;54.03;10.94
72336;BME280;65062;48.446;8.834;2023-08-20T15:15:15;97830.91;;;52.94;10.55
72336;BME280;65062;48.446;8.834;2023-08-20T15:18:15;97843.94;;;51.73;11.86
72336;BME280;65062;48.446;8.834;2023-08-20T15:21:16;97835.91;;;50.84;12.77
72336;BME280;65062;48.446;8.834;2023-08-20T15:24:16;97839.63;;;47.77;15.53
72336;BME280;65062;48.446;8.834;2023-08-20T15:27:17;97842.44;;;47.47;16.12
72336;BME280;65062;48.446;8.834;2023-08-20T15:30:18;97839.50;;;46.67;17.04
72336;BME280;65062;48.446;8.834;2023-08-20T15:33:25;97847.94;;;45.68;17.89
72336;BME280;65062;48.446;8.834;2023-08-20T15:36:25;97838.66;;;44.37;19.11
72336;BME280;65062;48.446;8.834;2023-08-20T15:39:25;97846.88;;;43.43;19.95
72336;BME280;65062;48.446;8.834;2023-08-20T15:42:26;97838.94;;;43.17;20.91
72336;BME280;65062;48.446;8.834;2023-08-20T15:45:26;97839.22;;;42.26;22.17
72336;BME280;65062;48.446;8.834;2023-08-20T15:48:27;97830.91;;;40.36;24.65
72336;BME280;65062;48.446;8.834;2023-08-20T15:51:28;97841.91;;;40.65;25.90
72336;BME280;65062;48.446;8.834;2023-08-20T15:54:28;97846.06;;;38.98;28.32
72336;BME280;65062;48.446;8.834;2023-08-20T15:57:29;97840.69;;;38.13;29.41
72336;BME280;65062;48.446;8.834;2023-08-20T16:00:29;97842.03;;;37.29;30.49
72336;BME280;65062;48.446;8.834;2023-08-20T16:03:30;97850.25;;;36.02;33.36
72336;BME280;65062;48.446;8.834;2023-08-20T16:06:30;97846.38;;;35.67;34.37
72336;BME280;65062;48.446;8.834;2023-08-20T16:09:31;97847.81;;;35.20;34.42